createdAt,value
2022-12-24T00:04:18.729Z,74.81857
2022-12-24T00:09:20.639Z,74.861
2022-12-24T00:14:22.693Z,74.64083
2022-12-24T00:19:24.548Z,73.98324
2022-12-24T00:24:26.383Z,74.04885
2022-12-24T00:29:28.357Z,75.28531
2022-12-24T00:34:30.734Z,75.52398
2022-12-24T00:39:33.079Z,75.67667
2022-12-24T00:44:34.905Z,75.12872
2022-12-24T00:49:36.809Z,75.74818
2022-12-24T00:54:38.621Z,76.50896
2022-12-24T00:59:40.513Z,76.22646
2022-12-24T01:04:42.518Z,76.10414
2022-12-24T01:09:44.427Z,75.51724
2022-12-24T01:14:45.876Z,76.08206
2022-12-24T01:19:47.469Z,75.68522
2022-12-24T01:24:49.349Z,75.65948
2022-12-24T01:29:50.921Z,78.23094
2022-12-24T01:34:52.725Z,77.04234
2022-12-24T01:39:54.494Z,76.55035
2022-12-24T01:44:56.472Z,75.32299
2022-12-24T01:49:58.142Z,77.25369
2022-12-24T01:55:00.331Z,79.34588
2022-12-24T02:00:02.289Z,80.55748
2022-12-24T02:05:04.332Z,77.7813
2022-12-24T02:10:06.063Z,77.88741
2022-12-24T02:15:07.913Z,79.98831
2022-12-24T02:20:09.955Z,80.89853
2022-12-24T02:25:11.738Z,78.78437
2022-12-24T02:30:13.543Z,77.54846
2022-12-24T02:35:15.578Z,77.88084
2022-12-24T02:40:17.797Z,78.27834
2022-12-24T02:45:19.655Z,76.67457
2022-12-24T02:50:21.446Z,75.57
2022-12-24T02:55:23.440Z,77.9468
2022-12-24T03:00:25.226Z,75.6833
2022-12-24T03:05:26.989Z,78.20676
2022-12-24T03:10:28.571Z,79.27666
2022-12-24T03:15:30.183Z,77.03361
2022-12-24T03:20:31.775Z,79.19857
2022-12-24T03:25:33.463Z,80.66767
2022-12-24T03:30:35.035Z,79.2183
2022-12-24T03:35:36.714Z,78.42196
2022-12-24T03:40:38.268Z,77.29252
2022-12-24T03:45:39.832Z,80.92824
2022-12-24T03:50:41.336Z,80.86003
2022-12-24T03:55:42.929Z,81.1721
2022-12-24T04:00:44.606Z,80.4426
2022-12-24T04:05:46.354Z,80.4622
2022-12-24T04:10:47.865Z,79.90456
2022-12-24T04:15:49.468Z,77.98086
2022-12-24T04:20:51.182Z,76.28169
2022-12-24T04:25:52.901Z,72.88699
2022-12-24T04:30:54.368Z,72.10591
2022-12-24T04:35:56.108Z,68.31423
2022-12-24T04:40:57.648Z,67.27022
2022-12-24T04:45:59.262Z,68.93
2022-12-24T04:51:01.064Z,67.2107
2022-12-24T04:56:03.102Z,66.06699
2022-12-24T05:01:04.862Z,67.6081
2022-12-24T05:06:06.919Z,64.26085
2022-12-24T05:11:08.417Z,61.59481
2022-12-24T05:16:09.900Z,59.30895
2022-12-24T05:21:11.436Z,61.4838
2022-12-24T05:26:13.011Z,59.34989
2022-12-24T05:31:14.633Z,58.25545
2022-12-24T05:36:16.776Z,54.83442
2022-12-24T05:41:18.707Z,59.29889
2022-12-24T05:46:20.565Z,56.93817
2022-12-24T05:51:22.613Z,53.44702
2022-12-24T05:56:24.429Z,55.15878
2022-12-24T06:01:26.332Z,51.0016
2022-12-24T06:06:28.484Z,51.49283
2022-12-24T06:11:29.951Z,48.78052
2022-12-24T06:16:31.535Z,45.49912
2022-12-24T06:21:33.604Z,46.32695
2022-12-24T06:26:35.551Z,45.59414
2022-12-24T06:31:37.603Z,44.43924
2022-12-24T06:36:39.552Z,45.43814
2022-12-24T06:41:41.489Z,42.00891
2022-12-24T06:46:43.457Z,43.68641
2022-12-24T06:51:45.249Z,43.42299
2022-12-24T06:56:46.859Z,42.34869
2022-12-24T07:01:48.608Z,41.74073
2022-12-24T07:06:50.552Z,40.95134
2022-12-24T07:11:52.063Z,38.7614
2022-12-24T07:16:58.765Z,37.28037
2022-12-24T07:22:00.920Z,36.1103
2022-12-24T07:27:02.757Z,34.92095
2022-12-24T07:32:04.657Z,33.95305
2022-12-24T07:37:06.606Z,35.16427
2022-12-24T07:42:08.647Z,35.97136
2022-12-24T07:47:10.631Z,34.49382
2022-12-24T07:52:12.825Z,28.85249
2022-12-24T07:57:14.748Z,27.82941
2022-12-24T08:02:18.725Z,28.59432
2022-12-24T08:07:21.306Z,29.64248
2022-12-24T08:12:23.283Z,29.09497
2022-12-24T08:17:30.331Z,32.05306
2022-12-24T08:22:36.183Z,27.42886
2022-12-24T08:27:38.120Z,27.51559
2022-12-24T08:32:39.938Z,28.91272
2022-12-24T08:37:42.109Z,29.89861
2022-12-24T08:42:44.067Z,26.7412
2022-12-24T08:47:46.212Z,25.46746
2022-12-24T08:52:47.774Z,27.57803
2022-12-24T08:57:49.656Z,27.60017
2022-12-24T09:02:51.622Z,27.73893
2022-12-24T09:07:53.377Z,26.18293
2022-12-24T09:12:55.076Z,28.44235
2022-12-24T09:17:56.741Z,26.73635
2022-12-24T09:22:58.291Z,28.40311
2022-12-24T09:28:00.041Z,27.63505
2022-12-24T09:33:01.592Z,26.77316
2022-12-24T09:38:03.647Z,26.3057
2022-12-24T09:43:05.172Z,28.31987
2022-12-24T09:48:06.831Z,27.0802
2022-12-24T09:53:08.523Z,27.33033
2022-12-24T09:58:09.980Z,26.13862
2022-12-24T10:03:11.482Z,25.46795
2022-12-24T10:08:13.170Z,25.52792
2022-12-24T10:13:14.944Z,25.46792
2022-12-24T10:18:16.494Z,22.82112
2022-12-24T10:23:18.299Z,25.91862
2022-12-24T10:28:20.208Z,26.61545
2022-12-24T10:33:22.237Z,26.13956
2022-12-24T10:38:24.810Z,26.20723
2022-12-24T10:43:26.553Z,27.23277
2022-12-24T10:48:28.228Z,27.31136
2022-12-24T10:53:29.853Z,28.09526
2022-12-24T10:58:31.801Z,26.60407
2022-12-24T11:03:33.430Z,25.54381
2022-12-24T11:08:35.183Z,25.95668
2022-12-24T11:13:38.375Z,26.51424
2022-12-24T11:18:45.143Z,25.42136
2022-12-24T11:23:50.323Z,24.79924
2022-12-24T11:28:52.171Z,26.61322
2022-12-24T11:33:53.629Z,26.54027
2022-12-24T11:38:56.226Z,26.9257
2022-12-24T11:43:57.823Z,26.53707
2022-12-24T11:49:05.896Z,24.60311
2022-12-24T11:54:09.726Z,27.2771
2022-12-24T11:59:11.880Z,25.91708
2022-12-24T12:04:13.674Z,25.89011
2022-12-24T12:09:15.817Z,25.29442
2022-12-24T12:14:18.122Z,25.9324
2022-12-24T12:19:19.945Z,24.65844
2022-12-24T12:24:25.461Z,24.82423
2022-12-24T12:29:30.349Z,24.15436
2022-12-24T12:34:32.168Z,25.53112
2022-12-24T12:39:34.424Z,25.18208
2022-12-24T12:44:36.608Z,24.77413
2022-12-24T12:49:38.191Z,27.15019
2022-12-24T12:54:40.204Z,25.66075
2022-12-24T12:59:42.003Z,25.69758
2022-12-24T13:04:44.090Z,25.50555
2022-12-24T13:09:46.169Z,26.89974
2022-12-24T13:14:48.115Z,26.97351
2022-12-24T13:19:49.573Z,26.81009
2022-12-24T13:24:52.168Z,27.78221
2022-12-24T13:29:54.038Z,28.12082
2022-12-24T13:34:55.624Z,28.23731
2022-12-24T13:39:57.706Z,27.95148
2022-12-24T13:44:59.377Z,28.00797
2022-12-24T13:50:00.823Z,26.51514
2022-12-24T13:55:02.326Z,26.5259
2022-12-24T14:00:03.978Z,26.19077
2022-12-24T14:05:05.952Z,25.51753
2022-12-24T14:10:07.855Z,25.44948
2022-12-24T14:15:10.009Z,25.56826
2022-12-24T14:20:11.795Z,26.05186
2022-12-24T14:25:13.509Z,26.40163
2022-12-24T14:30:15.249Z,27.42975
2022-12-24T14:35:17.216Z,26.78529
2022-12-24T14:40:19.323Z,26.52306
2022-12-24T14:45:21.039Z,27.12145
2022-12-24T14:50:22.850Z,27.5225
2022-12-24T14:55:24.656Z,27.67939
2022-12-24T15:00:26.386Z,26.92839
2022-12-24T15:05:28.107Z,26.99696
2022-12-24T15:10:30.036Z,27.89949
2022-12-24T15:15:32.045Z,27.88207
2022-12-24T15:20:33.722Z,28.90137
2022-12-24T15:25:35.465Z,28.37617
2022-12-24T15:30:37.384Z,28.58607
2022-12-24T15:35:39.273Z,30.56966
2022-12-24T15:40:41.252Z,29.72551
2022-12-24T15:45:43.217Z,31.00176
2022-12-24T15:50:45.171Z,30.9324
2022-12-24T15:55:47.258Z,33.40218
2022-12-24T16:00:49.074Z,33.31282
2022-12-24T16:05:50.625Z,33.5799
2022-12-24T16:10:52.388Z,34.0695
2022-12-24T16:15:54.013Z,34.39861
2022-12-24T16:20:55.498Z,34.62293
2022-12-24T16:25:57.002Z,34.31815
2022-12-24T16:30:58.616Z,34.67982
2022-12-24T16:36:00.115Z,35.59654
2022-12-24T16:41:01.812Z,35.52406
2022-12-24T16:46:03.612Z,37.66843
2022-12-24T16:51:05.264Z,38.4595
2022-12-24T16:56:07.099Z,39.17345
2022-12-24T17:01:09.108Z,37.94885
2022-12-24T17:06:10.855Z,38.49678
2022-12-24T17:11:12.533Z,40.93166
2022-12-24T17:16:14.140Z,39.56511
2022-12-24T17:21:15.803Z,40.25065
2022-12-24T17:26:17.543Z,40.90363
2022-12-24T17:31:19.479Z,41.26119
2022-12-24T17:36:21.176Z,42.28184
2022-12-24T17:41:22.861Z,42.77853
2022-12-24T17:46:24.483Z,43.19781
2022-12-24T17:51:26.302Z,43.44791
2022-12-24T17:56:27.831Z,44.99205
2022-12-24T18:01:29.913Z,45.20328
2022-12-24T18:06:31.809Z,44.99918
2022-12-24T18:11:33.824Z,44.53789
2022-12-24T18:16:35.702Z,43.73745
2022-12-24T18:21:37.615Z,44.17305
2022-12-24T18:26:39.525Z,43.85643
2022-12-24T18:31:41.480Z,44.74253
2022-12-24T18:36:43.150Z,45.06985
2022-12-24T18:41:45.719Z,45.02269
2022-12-24T18:46:47.550Z,47.10132
2022-12-24T18:51:49.069Z,47.46168
2022-12-24T18:56:50.519Z,48.44431
2022-12-24T19:01:52.541Z,48.80499
2022-12-24T19:06:54.219Z,49.99727
2022-12-24T19:11:55.891Z,50.46153
2022-12-24T19:16:57.555Z,51.2766
2022-12-24T19:21:59.356Z,50.42581
2022-12-24T19:27:01.328Z,52.52695
2022-12-24T19:32:03.566Z,52.09254
2022-12-24T19:37:05.509Z,50.77985
2022-12-24T19:42:07.505Z,51.63807
2022-12-24T19:47:09.487Z,52.1465
2022-12-24T19:52:11.863Z,52.20398
2022-12-24T19:57:13.648Z,53.57769
2022-12-24T20:02:15.737Z,54.07825
2022-12-24T20:07:17.791Z,53.67476
2022-12-24T20:12:19.749Z,53.88215
2022-12-24T20:17:21.808Z,54.84274
2022-12-24T20:22:23.588Z,55.48961
2022-12-24T20:27:25.373Z,54.60346
2022-12-24T20:32:29.542Z,55.85876
2022-12-24T20:37:31.556Z,56.71625
2022-12-24T20:42:33.537Z,57.20774
2022-12-24T20:47:35.569Z,59.0384
2022-12-24T20:52:37.474Z,60.75063
2022-12-24T20:57:39.228Z,59.6734
2022-12-24T21:02:41.250Z,60.62742
2022-12-24T21:07:43.109Z,59.64498
2022-12-24T21:12:45.114Z,60.86385
2022-12-24T21:17:46.933Z,59.67324
2022-12-24T21:22:48.812Z,60.26316
2022-12-24T21:27:50.613Z,61.21526
2022-12-24T21:32:52.359Z,60.65145
2022-12-24T21:37:53.818Z,61.14641
2022-12-24T21:42:56.137Z,60.76496
2022-12-24T21:47:57.936Z,60.14978
2022-12-24T21:52:59.459Z,61.18625
2022-12-24T21:58:01.241Z,61.00272
2022-12-24T22:03:03.057Z,63.91559
2022-12-24T22:08:04.647Z,64.32201
2022-12-24T22:13:06.803Z,63.53373
2022-12-24T22:18:08.901Z,63.70653
2022-12-24T22:23:10.737Z,65.64801
2022-12-24T22:28:12.634Z,66.19076
2022-12-24T22:33:14.613Z,64.94726
2022-12-24T22:38:16.416Z,64.94868
2022-12-24T22:43:18.521Z,64.74595
2022-12-24T22:48:20.138Z,67.11295
2022-12-24T22:53:22.244Z,65.78069
2022-12-24T22:58:24.029Z,64.94047
2022-12-24T23:03:26.088Z,66.31402
2022-12-24T23:08:27.715Z,65.8384
2022-12-24T23:13:29.919Z,65.79233
2022-12-24T23:18:31.828Z,65.55582
2022-12-24T23:23:37.061Z,63.23897
2022-12-24T23:28:39.406Z,59.95127
2022-12-24T23:33:41.593Z,58.47964
2022-12-24T23:38:43.470Z,59.85042
2022-12-24T23:43:45.692Z,61.93881
2022-12-24T23:48:47.660Z,59.50586
2022-12-24T23:53:49.555Z,59.4268
2022-12-24T23:58:51.347Z,62.24824
